createdAt,value
2023-02-12T00:00:52.296Z,6.05
2023-02-12T00:03:22.327Z,5.80
2023-02-12T00:05:52.500Z,6.00
2023-02-12T00:08:22.672Z,5.65
2023-02-12T00:10:53.071Z,5.95
2023-02-12T00:13:26.580Z,5.07
2023-02-12T00:15:59.525Z,5.53
2023-02-12T00:18:29.656Z,3.85
2023-02-12T00:21:03.058Z,4.00
2023-02-12T00:23:33.120Z,4.28
2023-02-12T00:26:03.282Z,3.75
2023-02-12T00:28:33.338Z,3.42
2023-02-12T00:31:11.145Z,4.03
2023-02-12T00:33:41.386Z,3.67
2023-02-12T00:36:13.063Z,4.13
2023-02-12T00:38:43.214Z,2.90
2023-02-12T00:41:13.585Z,3.28
2023-02-12T00:43:43.820Z,3.28
2023-02-12T00:46:18.107Z,3.55
2023-02-12T00:48:48.522Z,3.45
2023-02-12T00:51:18.671Z,3.20
2023-02-12T00:53:48.798Z,3.08
2023-02-12T00:56:19.051Z,3.67
2023-02-12T00:58:49.198Z,4.30
2023-02-12T01:01:22.425Z,3.75
2023-02-12T01:03:52.471Z,4.38
2023-02-12T01:06:22.762Z,4.47
2023-02-12T01:08:54.430Z,4.30
2023-02-12T01:11:24.932Z,4.63
2023-02-12T01:13:55.109Z,4.20
2023-02-12T01:16:28.206Z,3.90
2023-02-12T01:18:58.866Z,4.22
2023-02-12T01:21:33.450Z,4.68
2023-02-12T01:24:04.386Z,4.22
2023-02-12T01:26:38.235Z,4.47
2023-02-12T01:29:10.321Z,5.43
2023-02-12T01:31:43.954Z,4.88
2023-02-12T01:34:14.861Z,5.03
2023-02-12T01:36:45.174Z,4.53
2023-02-12T01:39:15.819Z,3.90
2023-02-12T01:41:47.841Z,3.05
2023-02-12T01:44:21.255Z,4.03
2023-02-12T01:46:59.120Z,4.20
2023-02-12T01:52:07.977Z,4.65
2023-02-12T01:54:40.682Z,4.65
2023-02-12T01:57:12.498Z,5.05
2023-02-12T01:59:44.369Z,5.43
2023-02-12T02:02:17.799Z,4.45
2023-02-12T02:04:52.930Z,5.50
2023-02-12T02:07:23.172Z,4.60
2023-02-12T02:09:53.632Z,5.03
2023-02-12T02:12:36.336Z,5.45
2023-02-12T02:15:09.121Z,4.97
2023-02-12T02:17:53.683Z,3.22
2023-02-12T02:20:50.392Z,3.05
2023-02-12T02:24:02.012Z,3.45
2023-02-12T02:26:51.752Z,3.83
2023-02-12T02:29:45.705Z,4.18
2023-02-12T02:32:23.921Z,4.45
2023-02-12T02:35:01.934Z,4.13
2023-02-12T02:37:35.999Z,3.83
2023-02-12T02:40:14.621Z,4.00
2023-02-12T02:42:49.994Z,5.40
2023-02-12T02:45:23.994Z,4.78
2023-02-12T02:48:01.316Z,5.25
2023-02-12T02:50:34.481Z,4.95
2023-02-12T02:53:07.773Z,6.03
2023-02-12T02:55:44.187Z,4.93
2023-02-12T02:58:17.629Z,4.72
2023-02-12T03:00:53.012Z,5.38
2023-02-12T03:03:27.759Z,4.80
2023-02-12T03:06:02.876Z,4.28
2023-02-12T03:08:35.054Z,4.07
2023-02-12T03:11:13.148Z,4.18
2023-02-12T03:13:49.312Z,4.47
2023-02-12T03:16:23.217Z,4.20
2023-02-12T03:18:59.968Z,4.57
2023-02-12T03:21:33.327Z,4.13
2023-02-12T03:24:08.222Z,3.78
2023-02-12T03:26:45.772Z,4.32
2023-02-12T03:29:16.135Z,4.22
2023-02-12T03:31:57.143Z,3.85
2023-02-12T03:34:42.569Z,4.93
2023-02-12T03:37:17.334Z,4.45
2023-02-12T03:39:56.319Z,4.05
2023-02-12T03:42:36.122Z,4.63
2023-02-12T03:45:11.778Z,4.13
2023-02-12T03:47:49.493Z,4.57
2023-02-12T03:50:29.290Z,4.75
2023-02-12T03:52:59.583Z,4.38
2023-02-12T03:55:29.977Z,4.63
2023-02-12T03:58:04.325Z,5.88
2023-02-12T04:00:34.597Z,5.03
2023-02-12T04:03:04.937Z,4.43
2023-02-12T04:05:37.554Z,4.82
2023-02-12T04:08:10.485Z,4.30
2023-02-12T04:10:49.727Z,4.03
2023-02-12T04:13:24.514Z,4.93
2023-02-12T04:16:08.249Z,4.97
2023-02-12T04:18:44.107Z,4.60
2023-02-12T04:21:33.274Z,4.55
2023-02-12T04:24:12.642Z,4.28
2023-02-12T04:26:53.543Z,4.82
2023-02-12T04:29:35.154Z,4.63
2023-02-12T04:32:14.789Z,9.60
2023-02-12T04:34:52.124Z,5.65
2023-02-12T04:37:29.605Z,4.53
2023-02-12T04:40:01.483Z,5.25
2023-02-12T04:42:31.717Z,4.38
2023-02-12T04:45:01.817Z,4.68
2023-02-12T04:47:32.213Z,4.93
2023-02-12T04:50:02.429Z,4.72
2023-02-12T04:52:35.122Z,4.28
2023-02-12T04:55:05.670Z,4.35
2023-02-12T04:57:35.791Z,4.93
2023-02-12T05:00:06.390Z,5.20
2023-02-12T05:02:37.720Z,5.47
2023-02-12T05:05:08.293Z,5.53
2023-02-12T05:07:43.849Z,5.35
2023-02-12T05:10:14.589Z,4.38
2023-02-12T05:12:44.881Z,4.35
2023-02-12T05:15:15.214Z,5.00
2023-02-12T05:17:45.951Z,4.93
2023-02-12T05:20:16.961Z,4.50
2023-02-12T05:22:49.643Z,4.43
2023-02-12T05:25:19.958Z,4.50
2023-02-12T05:27:50.052Z,3.95
2023-02-12T05:30:20.935Z,5.18
2023-02-12T05:32:51.295Z,4.75
2023-02-12T05:35:21.585Z,4.78
2023-02-12T05:37:54.311Z,5.03
2023-02-12T05:40:24.793Z,5.30
2023-02-12T05:42:55.204Z,4.68
2023-02-12T05:45:28.044Z,4.93
2023-02-12T05:47:58.390Z,5.35
2023-02-12T05:50:28.728Z,4.90
2023-02-12T05:53:03.119Z,5.38
2023-02-12T05:55:33.587Z,5.35
2023-02-12T05:58:03.626Z,4.72
2023-02-12T06:00:33.837Z,4.95
2023-02-12T06:03:03.936Z,4.88
2023-02-12T06:05:34.186Z,5.43
2023-02-12T06:08:07.275Z,5.05
2023-02-12T06:10:38.941Z,4.88
2023-02-12T06:13:09.071Z,4.70
2023-02-12T06:15:39.832Z,4.93
2023-02-12T06:18:09.869Z,4.65
2023-02-12T06:20:43.697Z,5.28
2023-02-12T06:23:19.569Z,5.13
2023-02-12T06:25:49.774Z,5.95
2023-02-12T06:28:20.586Z,6.00
2023-02-12T06:30:51.194Z,5.80
2023-02-12T06:33:21.377Z,5.22
2023-02-12T06:35:51.802Z,5.13
2023-02-12T06:38:24.494Z,5.32
2023-02-12T06:40:54.628Z,4.88
2023-02-12T06:43:24.739Z,4.53
2023-02-12T06:45:55.194Z,5.05
2023-02-12T06:48:25.684Z,5.10
2023-02-12T06:50:56.159Z,4.50
2023-02-12T06:53:28.924Z,4.50
2023-02-12T06:55:59.323Z,5.00
2023-02-12T06:58:29.363Z,5.38
2023-02-12T07:00:59.644Z,4.43
2023-02-12T07:03:30.005Z,5.53
2023-02-12T07:06:00.399Z,5.18
2023-02-12T07:08:33.059Z,5.28
2023-02-12T07:11:03.559Z,4.90
2023-02-12T07:13:35.005Z,4.43
2023-02-12T07:16:10.924Z,5.43
2023-02-12T07:18:42.218Z,4.97
2023-02-12T07:23:50.984Z,4.28
2023-02-12T07:26:23.473Z,5.07
2023-02-12T07:28:54.185Z,5.35
2023-02-12T07:31:26.001Z,5.10
2023-02-12T07:33:57.845Z,5.78
2023-02-12T07:36:29.240Z,5.47
2023-02-12T07:39:02.445Z,4.82
2023-02-12T07:41:34.717Z,4.63
2023-02-12T07:44:09.425Z,4.80
2023-02-12T07:46:41.940Z,4.38
2023-02-12T07:49:17.109Z,5.28
2023-02-12T07:51:48.754Z,4.93
2023-02-12T07:54:24.390Z,4.93
2023-02-12T07:56:54.613Z,4.53
2023-02-12T07:59:24.756Z,5.80
2023-02-12T08:01:56.498Z,5.20
2023-02-12T08:04:28.257Z,4.95
2023-02-12T08:06:59.496Z,4.88
2023-02-12T08:12:02.856Z,5.38
2023-02-12T08:14:33.497Z,5.20
2023-02-12T08:17:03.722Z,4.93
2023-02-12T08:19:34.230Z,5.20
2023-02-12T08:22:06.801Z,5.88
2023-02-12T08:24:39.851Z,6.78
2023-02-12T08:27:10.129Z,6.32
2023-02-12T08:29:40.467Z,5.13
2023-02-12T08:32:14.140Z,5.40
2023-02-12T08:34:44.423Z,5.13
2023-02-12T08:37:14.983Z,5.57
2023-02-12T08:39:50.527Z,5.32
2023-02-12T08:42:23.079Z,5.68
2023-02-12T08:44:53.106Z,5.15
2023-02-12T08:47:23.323Z,6.18
2023-02-12T08:49:53.431Z,6.82
2023-02-12T08:52:23.621Z,6.07
2023-02-12T08:54:56.545Z,5.13
2023-02-12T08:57:26.669Z,6.30
2023-02-12T08:59:56.891Z,7.22
2023-02-12T09:02:27.182Z,6.78
2023-02-12T09:04:57.551Z,7.70
2023-02-12T09:07:27.841Z,8.05
2023-02-12T09:10:00.444Z,6.95
2023-02-12T09:12:30.807Z,8.25
2023-02-12T09:15:00.885Z,7.57
2023-02-12T09:17:31.141Z,7.45
2023-02-12T09:20:01.601Z,8.07
2023-02-12T09:22:31.692Z,8.27
2023-02-12T09:25:04.562Z,8.88
2023-02-12T09:27:34.908Z,7.13
2023-02-12T09:30:05.008Z,8.43
2023-02-12T09:32:35.329Z,7.40
2023-02-12T09:35:05.376Z,6.90
2023-02-12T09:37:35.458Z,7.47
2023-02-12T09:40:09.701Z,7.28
2023-02-12T09:42:55.218Z,6.50
2023-02-12T09:45:29.388Z,7.28
2023-02-12T09:48:06.373Z,6.93
2023-02-12T09:50:48.836Z,7.15
2023-02-12T09:53:22.535Z,6.60
2023-02-12T09:55:55.486Z,6.85
2023-02-12T09:58:34.370Z,6.30
2023-02-12T10:01:08.116Z,6.95
2023-02-12T10:03:38.258Z,8.75
2023-02-12T10:06:11.530Z,8.00
2023-02-12T10:08:59.692Z,7.70
2023-02-12T10:11:53.300Z,8.23
2023-02-12T10:14:44.586Z,7.22
2023-02-12T10:17:22.768Z,7.65
2023-02-12T10:20:09.607Z,7.38
2023-02-12T10:22:56.935Z,6.40
2023-02-12T10:25:37.164Z,6.28
2023-02-12T10:28:15.537Z,7.82
2023-02-12T10:30:51.046Z,10.55
2023-02-12T10:33:27.697Z,9.90
2023-02-12T10:36:03.935Z,9.35
2023-02-12T10:38:38.072Z,7.85
2023-02-12T10:41:08.331Z,7.50
2023-02-12T10:43:41.047Z,8.77
2023-02-12T10:46:16.585Z,8.90
2023-02-12T10:48:49.700Z,8.85
2023-02-12T10:51:37.699Z,8.05
2023-02-12T10:54:36.093Z,6.97
2023-02-12T10:57:14.023Z,7.63
2023-02-12T10:59:48.029Z,7.47
2023-02-12T11:02:27.678Z,8.98
2023-02-12T11:04:59.283Z,8.50
2023-02-12T11:07:30.817Z,8.73
2023-02-12T11:10:01.166Z,9.13
2023-02-12T11:12:35.979Z,8.90
2023-02-12T11:15:17.162Z,8.25
2023-02-12T11:17:57.330Z,9.32
2023-02-12T11:20:29.655Z,9.82
2023-02-12T11:23:01.589Z,8.55
2023-02-12T11:25:34.189Z,7.55
2023-02-12T11:28:18.700Z,7.70
2023-02-12T11:30:59.831Z,9.05
2023-02-12T11:33:35.723Z,9.35
2023-02-12T11:36:10.479Z,9.30
2023-02-12T11:38:50.191Z,9.00
2023-02-12T11:41:28.701Z,9.20
2023-02-12T11:43:59.627Z,9.68
2023-02-12T11:46:32.457Z,8.38
2023-02-12T11:49:03.003Z,8.55
2023-02-12T11:51:35.195Z,7.95
2023-02-12T11:54:08.361Z,8.07
2023-02-12T11:56:46.796Z,8.55
2023-02-12T11:59:35.161Z,8.25
2023-02-12T12:02:19.646Z,8.70
2023-02-12T12:04:53.446Z,8.25
2023-02-12T12:07:28.599Z,7.47
2023-02-12T12:10:02.686Z,8.32
2023-02-12T12:12:40.719Z,7.78
2023-02-12T12:15:32.193Z,8.55
2023-02-12T12:18:24.833Z,8.55
2023-02-12T12:20:58.090Z,7.80
2023-02-12T12:23:34.650Z,8.23
2023-02-12T12:26:11.588Z,8.95
2023-02-12T12:28:47.486Z,8.25
2023-02-12T12:31:21.596Z,8.63
2023-02-12T12:33:59.937Z,8.63
2023-02-12T12:37:08.985Z,8.90
2023-02-12T12:39:44.394Z,8.50
2023-02-12T12:42:49.214Z,8.85
2023-02-12T12:45:34.058Z,8.63
2023-02-12T12:48:17.229Z,8.85
2023-02-12T12:51:05.393Z,8.88
2023-02-12T12:53:41.666Z,8.15
2023-02-12T12:56:40.749Z,9.05
2023-02-12T12:59:35.516Z,8.88
2023-02-12T13:02:41.122Z,8.98
2023-02-12T13:05:48.541Z,8.98
2023-02-12T13:08:31.438Z,8.82
2023-02-12T13:11:08.178Z,8.45
2023-02-12T13:13:40.590Z,8.77
2023-02-12T13:16:18.383Z,7.82
2023-02-12T13:18:59.048Z,9.35
2023-02-12T13:21:41.988Z,8.10
2023-02-12T13:24:26.547Z,8.48
2023-02-12T13:26:59.552Z,9.00
2023-02-12T13:29:35.281Z,8.48
2023-02-12T13:32:08.927Z,8.25
2023-02-12T13:34:40.890Z,8.15
2023-02-12T13:37:20.251Z,8.70
2023-02-12T13:39:54.386Z,8.32
2023-02-12T13:42:39.804Z,8.25
2023-02-12T13:45:21.905Z,8.57
2023-02-12T13:48:05.229Z,8.30
2023-02-12T13:50:43.953Z,8.60
2023-02-12T13:53:24.922Z,8.13
2023-02-12T13:56:09.797Z,8.05
2023-02-12T13:58:53.882Z,8.35
2023-02-12T14:01:47.603Z,8.82
2023-02-12T14:04:32.943Z,8.43
2023-02-12T14:07:06.803Z,9.10
2023-02-12T14:09:40.956Z,8.02
2023-02-12T14:12:18.002Z,8.13
2023-02-12T14:14:50.569Z,8.45
2023-02-12T14:17:53.392Z,8.32
2023-02-12T14:20:32.523Z,7.43
2023-02-12T14:23:24.605Z,8.52
2023-02-12T14:26:11.647Z,7.97
2023-02-12T14:28:59.359Z,8.27
2023-02-12T14:31:39.880Z,7.57
2023-02-12T14:34:42.436Z,7.18
2023-02-12T14:37:37.767Z,7.25
2023-02-12T14:40:54.025Z,7.57
2023-02-12T14:43:33.674Z,8.23
2023-02-12T14:46:33.559Z,7.55
2023-02-12T14:49:07.721Z,7.75
2023-02-12T14:51:45.850Z,7.20
2023-02-12T14:54:21.506Z,6.97
2023-02-12T14:56:55.712Z,7.05
2023-02-12T14:59:28.452Z,7.28
2023-02-12T15:02:02.404Z,7.93
2023-02-12T15:04:40.046Z,7.57
2023-02-12T15:09:50.809Z,6.85
2023-02-12T15:12:27.468Z,7.70
2023-02-12T15:15:06.947Z,6.78
2023-02-12T15:17:40.947Z,8.27
2023-02-12T15:20:23.345Z,9.75
2023-02-12T15:22:53.693Z,9.05
2023-02-12T15:25:29.524Z,9.15
2023-02-12T15:28:02.528Z,9.38
2023-02-12T15:30:35.298Z,8.50
2023-02-12T15:33:07.981Z,9.57
2023-02-12T15:35:47.115Z,10.07
2023-02-12T15:38:27.961Z,9.68
2023-02-12T15:41:00.304Z,8.75
2023-02-12T15:43:35.136Z,9.38
2023-02-12T15:46:07.985Z,9.18
2023-02-12T15:48:40.722Z,12.43
2023-02-12T15:51:21.188Z,10.10
2023-02-12T15:53:51.795Z,10.32
2023-02-12T15:56:23.145Z,9.10
2023-02-12T15:58:55.544Z,9.00
2023-02-12T16:01:27.251Z,9.40
2023-02-12T16:04:00.233Z,9.93
2023-02-12T16:06:36.844Z,10.20
2023-02-12T16:09:11.686Z,9.55
2023-02-12T16:11:42.248Z,9.80
2023-02-12T16:14:23.472Z,10.20
2023-02-12T16:16:55.636Z,9.10
2023-02-12T16:19:43.493Z,10.10
2023-02-12T16:22:22.653Z,9.18
2023-02-12T16:24:56.642Z,9.20
2023-02-12T16:27:30.504Z,9.02
2023-02-12T16:30:02.849Z,9.68
2023-02-12T16:32:44.084Z,8.45
2023-02-12T16:35:31.664Z,9.35
2023-02-12T16:38:06.008Z,10.20
2023-02-12T16:40:39.609Z,10.05
2023-02-12T16:43:29.370Z,10.88
2023-02-12T16:46:07.107Z,11.13
2023-02-12T16:51:24.872Z,10.10
2023-02-12T16:53:59.178Z,9.98
2023-02-12T16:56:32.711Z,9.38
2023-02-12T16:59:05.048Z,10.88
2023-02-12T17:01:37.514Z,9.98
2023-02-12T17:04:10.743Z,9.85
2023-02-12T17:06:40.838Z,10.98
2023-02-12T17:09:13.904Z,11.00
2023-02-12T17:11:45.412Z,9.73
2023-02-12T17:14:19.341Z,10.98
2023-02-12T17:16:50.126Z,10.25
2023-02-12T17:19:20.412Z,11.65
2023-02-12T17:21:54.710Z,21.02
2023-02-12T17:24:29.531Z,12.98
2023-02-12T17:27:00.201Z,11.02
2023-02-12T17:29:31.351Z,10.80
2023-02-12T17:34:39.713Z,11.13
2023-02-12T17:37:17.058Z,11.93
2023-02-12T17:39:49.839Z,12.48
2023-02-12T17:42:20.379Z,12.07
2023-02-12T17:44:50.612Z,12.88
2023-02-12T17:47:20.919Z,12.10
2023-02-12T17:49:51.175Z,12.93
2023-02-12T17:52:21.606Z,13.35
2023-02-12T17:55:06.723Z,13.60
2023-02-12T17:57:36.866Z,11.65
2023-02-12T18:00:07.937Z,13.52
2023-02-12T18:02:38.133Z,13.85
2023-02-12T18:05:08.818Z,12.85
2023-02-12T18:07:39.485Z,13.90
2023-02-12T18:10:14.028Z,13.45
2023-02-12T18:12:44.328Z,14.85
2023-02-12T18:15:15.017Z,15.32
2023-02-12T18:17:45.699Z,15.25
2023-02-12T18:20:16.750Z,15.57
2023-02-12T18:22:50.258Z,14.40
2023-02-12T18:25:23.117Z,15.43
2023-02-12T18:27:53.538Z,14.38
2023-02-12T18:30:23.758Z,14.80
2023-02-12T18:32:54.279Z,14.27
2023-02-12T18:35:24.574Z,15.90
2023-02-12T18:37:54.888Z,15.15
2023-02-12T18:40:28.240Z,14.77
2023-02-12T18:42:58.477Z,14.52
2023-02-12T18:45:28.753Z,13.43
2023-02-12T18:48:01.796Z,14.23
2023-02-12T18:50:31.850Z,15.45
2023-02-12T18:53:02.136Z,13.60
2023-02-12T18:55:34.905Z,14.00
2023-02-12T18:58:05.126Z,13.73
2023-02-12T19:00:35.454Z,14.50
2023-02-12T19:03:05.667Z,14.70
2023-02-12T19:05:36.079Z,13.50
2023-02-12T19:08:06.445Z,13.63
2023-02-12T19:10:42.323Z,15.27
2023-02-12T19:13:12.643Z,14.38
2023-02-12T19:15:43.237Z,12.00
2023-02-12T19:18:16.547Z,15.57
2023-02-12T19:20:46.719Z,13.68
2023-02-12T19:23:17.019Z,13.15
2023-02-12T19:25:49.758Z,12.57
2023-02-12T19:28:20.251Z,13.05
2023-02-12T19:30:53.789Z,12.65
2023-02-12T19:33:24.707Z,12.63
2023-02-12T19:35:54.851Z,12.07
2023-02-12T19:38:25.061Z,10.63
2023-02-12T19:41:05.147Z,12.27
2023-02-12T19:43:35.752Z,12.68
2023-02-12T19:46:06.972Z,12.18
2023-02-12T19:51:08.942Z,11.48
2023-02-12T19:53:39.509Z,11.38
2023-02-12T19:56:12.804Z,12.32
2023-02-12T19:58:43.362Z,12.18
2023-02-12T20:01:20.399Z,11.82
2023-02-12T20:03:51.774Z,13.38
2023-02-12T20:06:24.866Z,13.13
2023-02-12T20:09:05.897Z,12.48
2023-02-12T20:11:40.465Z,13.57
2023-02-12T20:14:12.761Z,13.15
2023-02-12T20:16:46.717Z,12.30
2023-02-12T20:19:19.642Z,13.75
2023-02-12T20:21:55.852Z,12.93
2023-02-12T20:24:26.901Z,12.30
2023-02-12T20:27:00.739Z,12.57
2023-02-12T20:29:31.008Z,12.30
2023-02-12T20:32:01.250Z,12.38
2023-02-12T20:34:36.692Z,14.98
2023-02-12T20:37:14.166Z,14.60
2023-02-12T20:39:44.519Z,13.63
2023-02-12T20:42:17.306Z,14.50
2023-02-12T20:44:49.928Z,12.40
2023-02-12T20:47:20.205Z,12.00
2023-02-12T20:49:50.310Z,12.05
2023-02-12T20:52:20.975Z,13.32
2023-02-12T20:54:51.076Z,12.48
2023-02-12T20:57:23.806Z,13.10
2023-02-12T20:59:54.135Z,13.05
2023-02-12T21:02:24.158Z,12.55
2023-02-12T21:04:56.231Z,13.38
2023-02-12T21:07:26.755Z,12.63
2023-02-12T21:09:59.403Z,13.48
2023-02-12T21:12:32.134Z,11.77
2023-02-12T21:15:02.487Z,13.20
2023-02-12T21:17:35.812Z,12.63
2023-02-12T21:20:06.118Z,13.13
2023-02-12T21:22:41.956Z,13.25
2023-02-12T21:25:14.679Z,13.75
2023-02-12T21:27:59.700Z,13.90
2023-02-12T21:30:30.258Z,11.65
2023-02-12T21:33:00.562Z,13.52
2023-02-12T21:35:31.086Z,12.23
2023-02-12T21:38:01.275Z,12.88
2023-02-12T21:40:31.936Z,12.82
2023-02-12T21:43:04.680Z,12.18
2023-02-12T21:45:34.927Z,12.65
2023-02-12T21:48:05.287Z,14.02
2023-02-12T21:50:37.692Z,14.02
2023-02-12T21:53:08.003Z,13.30
2023-02-12T21:55:39.567Z,13.95
2023-02-12T21:58:12.248Z,13.40
2023-02-12T22:00:42.737Z,13.20
2023-02-12T22:03:13.079Z,13.45
2023-02-12T22:05:43.266Z,12.65
2023-02-12T22:08:13.687Z,12.30
2023-02-12T22:10:44.135Z,13.20
2023-02-12T22:13:16.857Z,12.23
2023-02-12T22:15:47.193Z,12.55
2023-02-12T22:18:17.271Z,12.90
2023-02-12T22:20:47.355Z,13.63
2023-02-12T22:23:17.945Z,12.48
2023-02-12T22:25:48.635Z,12.57
2023-02-12T22:28:21.473Z,12.32
2023-02-12T22:30:51.596Z,12.55
2023-02-12T22:33:21.677Z,11.93
2023-02-12T22:35:51.881Z,12.07
2023-02-12T22:38:21.986Z,12.75
2023-02-12T22:40:55.990Z,13.35
2023-02-12T22:43:31.088Z,13.07
2023-02-12T22:46:01.510Z,13.30
2023-02-12T22:48:37.770Z,13.40
2023-02-12T22:51:16.744Z,12.52
2023-02-12T22:53:46.933Z,13.25
2023-02-12T22:56:18.874Z,13.68
2023-02-12T22:58:52.018Z,12.25
2023-02-12T23:01:22.688Z,12.80
2023-02-12T23:03:53.182Z,12.82
2023-02-12T23:06:25.367Z,13.02
2023-02-12T23:08:56.524Z,12.52
2023-02-12T23:11:26.819Z,11.20
2023-02-12T23:14:01.248Z,13.60
2023-02-12T23:16:31.602Z,13.45
2023-02-12T23:19:04.839Z,12.75
2023-02-12T23:21:35.402Z,12.38
2023-02-12T23:24:05.696Z,12.80
2023-02-12T23:26:36.840Z,12.45
2023-02-12T23:29:09.599Z,12.30
2023-02-12T23:31:40.060Z,13.40
2023-02-12T23:34:10.463Z,12.77
2023-02-12T23:36:40.622Z,13.40
2023-02-12T23:39:11.099Z,12.65
2023-02-12T23:41:41.435Z,12.10
2023-02-12T23:44:15.008Z,12.65
2023-02-12T23:46:45.157Z,12.93
2023-02-12T23:49:15.262Z,13.82
2023-02-12T23:51:46.538Z,12.68
2023-02-12T23:54:17.051Z,13.23
2023-02-12T23:56:47.301Z,13.32
2023-02-12T23:59:20.020Z,13.10
